Pagina principale
METAR-TAF:

METAR-TAF

Aeroporti :

Aeroporto di Brest Bretagna

Brest, Francia

latitudine: 48-27N, longitudine: 004-25W, altezza: 99 m

Osservazione

Il bollettino è stato emesso 23 minuti fa, alle 17:00 UTC
Vento 17 kt da nord-est
Temperature 24°C
Umidità 41%
Pressione 1015 hPa
Visibilità 10 km o più
nessuna nube inferiore a 1500 m e nessun cumulonembo

METAR: LFRB 311700Z AUTO 05017KT CAVOK 24/10 Q1015 TEMPO 05016G26KT

Ora: 19:23 (17:23 UTC)

Previsione

Il bollettino è stato emesso 6 ore e 23 minuti fa, alle 11:00 UTC
Previsione valida dal 31 alle 12 UTC al 01 alle 18 UTC
Vento 8 kt da est
Visibilità 10 km o più
nessuna nube inferiore a 1500 m e nessun cumulonembo
Temporaneamente
dal 31 alle 15 UTC al 31 alle 21 UTC
Vento 16 kt da nord-est con raffiche fino a 26 kt
Temporaneamente
dal 01 alle 12 UTC al 01 alle 18 UTC
Vento 16 kt da nord-est con raffiche fino a 26 kt

TAF: LFRB 311100Z 3112/0118 10008KT CAVOK TEMPO 3115/3121 05016G26KT TEMPO 0112/0118 05016G26KT

Osservazioni e previsioni meteorologiche di più di 4000 aeroporti (messaggi METAR e TAF).

Le stazioni disponibili sono rappresentate dai dischi gialli e rossi sulla carta.

Puntare il mouse per vedere il nome della stazione.

Clicca sopra per visualizzare le osservazioni e previsioni meteorologiche.

Per cambiare la mappa : fare clic sui pulsanti verdi con una croce nera per ingrandire, il pulsante verde con un trattino per diminuire, o sulla freccia verde per le mappe adiacenti.


METAR-TAF: